CSZ2865 ZSPD-ZGSZ
Flight info
| Callsign | CSZ2865 |
|---|---|
| Flight time | 2h 11m |
| Altitude | 32100 |
| Route | NXD W131 AKDIM A470 DUBGO W134 ELNEX A599 PLT W19 ATKAV W20 SALIV R473 NOLON W90 POU W7 SAREX |
| Aircraft | B738/M-SDE2E3FGHIRWXY/LB1 |
Departure
| Time | 2026-05-07 08:33 |
|---|---|
| Airport | Shanghai Pudong International Airport (ZSPD) |
Arrival
| Time | 2026-05-07 10:45 |
|---|---|
| Airport | Shenzhen Bao'an International Airport (ZGSZ) |
| Time | Latitude | Longitude | Altitude | Speed | Heading |
|---|---|---|---|---|---|
| 2026-05-07 07:46 | 31.13335 | 121.81310 | 22 ft | 0 kts | 57° |
| 2026-05-07 08:19 | 31.13328 | 121.81295 | 21 ft | 2 kts | 57° |
| 2026-05-07 08:19 | 31.13320 | 121.81280 | 21 ft | 2 kts | 57° |
| 2026-05-07 08:19 | 31.13311 | 121.81266 | 21 ft | 2 kts | 57° |
| 2026-05-07 08:19 | 31.13303 | 121.81251 | 21 ft | 2 kts | 71° |
| 2026-05-07 08:20 | 31.13302 | 121.81233 | 21 ft | 2 kts | 102° |
| 2026-05-07 08:20 | 31.13309 | 121.81217 | 22 ft | 2 kts | 131° |
| 2026-05-07 08:20 | 31.13320 | 121.81208 | 22 ft | 0 kts | 158° |
| 2026-05-07 08:20 | 31.13326 | 121.81206 | 21 ft | 1 kts | 163° |
| 2026-05-07 08:21 | 31.13328 | 121.81205 | 21 ft | 0 kts | 162° |
| 2026-05-07 08:23 | 31.13327 | 121.81206 | 21 ft | 0 kts | 162° |
| 2026-05-07 08:23 | 31.13317 | 121.81210 | 21 ft | 2 kts | 161° |
| 2026-05-07 08:23 | 31.13294 | 121.81219 | 21 ft | 3 kts | 161° |
| 2026-05-07 08:23 | 31.13266 | 121.81229 | 21 ft | 4 kts | 161° |
| 2026-05-07 08:24 | 31.13231 | 121.81242 | 21 ft | 6 kts | 162° |
| 2026-05-07 08:24 | 31.13183 | 121.81260 | 21 ft | 8 kts | 162° |
| 2026-05-07 08:24 | 31.13123 | 121.81282 | 21 ft | 8 kts | 162° |
| 2026-05-07 08:24 | 31.13069 | 121.81303 | 21 ft | 7 kts | 162° |
| 2026-05-07 08:25 | 31.13019 | 121.81306 | 21 ft | 7 kts | 205° |
| 2026-05-07 08:25 | 31.12990 | 121.81257 | 21 ft | 6 kts | 250° |
| 2026-05-07 08:25 | 31.12974 | 121.81202 | 21 ft | 7 kts | 252° |
| 2026-05-07 08:25 | 31.12958 | 121.81142 | 21 ft | 8 kts | 252° |
| 2026-05-07 08:26 | 31.12915 | 121.80987 | 21 ft | 12 kts | 252° |
| 2026-05-07 08:26 | 31.12886 | 121.80884 | 21 ft | 14 kts | 252° |
| 2026-05-07 08:26 | 31.12852 | 121.80765 | 21 ft | 16 kts | 252° |
| 2026-05-07 08:27 | 31.12818 | 121.80642 | 22 ft | 15 kts | 252° |
| 2026-05-07 08:27 | 31.12788 | 121.80533 | 21 ft | 13 kts | 252° |
| 2026-05-07 08:27 | 31.12761 | 121.80435 | 21 ft | 10 kts | 252° |
| 2026-05-07 08:27 | 31.12738 | 121.80357 | 21 ft | 10 kts | 251° |
| 2026-05-07 08:28 | 31.12715 | 121.80279 | 22 ft | 8 kts | 252° |
| 2026-05-07 08:28 | 31.12722 | 121.80225 | 21 ft | 6 kts | 310° |
| 2026-05-07 08:28 | 31.12754 | 121.80196 | 21 ft | 5 kts | 318° |
| 2026-05-07 08:28 | 31.12771 | 121.80147 | 21 ft | 6 kts | 264° |
| 2026-05-07 08:29 | 31.12759 | 121.80097 | 22 ft | 5 kts | 252° |
| 2026-05-07 08:29 | 31.12748 | 121.80057 | 21 ft | 4 kts | 252° |
| 2026-05-07 08:29 | 31.12739 | 121.80027 | 22 ft | 3 kts | 252° |
| 2026-05-07 08:29 | 31.12736 | 121.80014 | 21 ft | 0 kts | 252° |
| 2026-05-07 08:30 | 31.12734 | 121.80008 | 22 ft | 2 kts | 252° |
| 2026-05-07 08:31 | 31.12725 | 121.79977 | 22 ft | 5 kts | 252° |
| 2026-05-07 08:31 | 31.12713 | 121.79925 | 21 ft | 6 kts | 266° |
| 2026-05-07 08:31 | 31.12733 | 121.79883 | 21 ft | 4 kts | 326° |
| 2026-05-07 08:31 | 31.12751 | 121.79874 | 21 ft | 0 kts | 342° |
| 2026-05-07 08:32 | 31.12752 | 121.79873 | 21 ft | 0 kts | 342° |
| 2026-05-07 08:32 | 31.12786 | 121.79861 | 22 ft | 21 kts | 342° |
| 2026-05-07 08:33 | 31.13182 | 121.79712 | 22 ft | 96 kts | 342° |
| 2026-05-07 08:33 | 31.14047 | 121.79385 | 22 ft | 159 kts | 342° |
| 2026-05-07 08:33 | 31.15196 | 121.78947 | 365 ft | 180 kts | 344° |
| 2026-05-07 08:33 | 31.16344 | 121.78507 | 1279 ft | 172 kts | 342° |
| 2026-05-07 08:34 | 31.17440 | 121.78056 | 2036 ft | 168 kts | 340° |
| 2026-05-07 08:34 | 31.18562 | 121.77576 | 2558 ft | 175 kts | 340° |
| 2026-05-07 08:34 | 31.19708 | 121.77106 | 3168 ft | 176 kts | 341° |
| 2026-05-07 08:34 | 31.20885 | 121.76633 | 3632 ft | 187 kts | 341° |
| 2026-05-07 08:35 | 31.22168 | 121.76116 | 4029 ft | 204 kts | 340° |
| 2026-05-07 08:35 | 31.23556 | 121.75556 | 4482 ft | 221 kts | 340° |
| 2026-05-07 08:35 | 31.25073 | 121.74947 | 5030 ft | 235 kts | 340° |
| 2026-05-07 08:35 | 31.26649 | 121.74316 | 5533 ft | 249 kts | 340° |
| 2026-05-07 08:36 | 31.28341 | 121.73640 | 6058 ft | 263 kts | 340° |
| 2026-05-07 08:36 | 31.30119 | 121.72938 | 6718 ft | 272 kts | 340° |
| 2026-05-07 08:36 | 31.31827 | 121.72053 | 7472 ft | 272 kts | 323° |
| 2026-05-07 08:36 | 31.33104 | 121.70442 | 8249 ft | 274 kts | 298° |
| 2026-05-07 08:37 | 31.33756 | 121.68358 | 9081 ft | 274 kts | 281° |
| 2026-05-07 08:37 | 31.33935 | 121.66133 | 9748 ft | 277 kts | 270° |
| 2026-05-07 08:37 | 31.33757 | 121.63916 | 10422 ft | 280 kts | 262° |
| 2026-05-07 08:37 | 31.33363 | 121.61620 | 10796 ft | 296 kts | 258° |
| 2026-05-07 08:38 | 31.32900 | 121.59213 | 11300 ft | 309 kts | 259° |
| 2026-05-07 08:38 | 31.32449 | 121.56750 | 11639 ft | 323 kts | 259° |
| 2026-05-07 08:38 | 31.31980 | 121.54038 | 11725 ft | 342 kts | 259° |
| 2026-05-07 08:38 | 31.31304 | 121.51421 | 12698 ft | 336 kts | 250° |
| 2026-05-07 08:39 | 31.30381 | 121.48957 | 13716 ft | 331 kts | 246° |
| 2026-05-07 08:39 | 31.29357 | 121.46511 | 14267 ft | 338 kts | 245° |
| 2026-05-07 08:39 | 31.28328 | 121.44041 | 15003 ft | 338 kts | 246° |
| 2026-05-07 08:39 | 31.27329 | 121.41543 | 15678 ft | 342 kts | 248° |
| 2026-05-07 08:40 | 31.26344 | 121.38988 | 16405 ft | 344 kts | 248° |
| 2026-05-07 08:40 | 31.25381 | 121.36443 | 17028 ft | 348 kts | 248° |
| 2026-05-07 08:40 | 31.24401 | 121.33832 | 17681 ft | 352 kts | 248° |
| 2026-05-07 08:40 | 31.23421 | 121.31223 | 18302 ft | 356 kts | 248° |
| 2026-05-07 08:41 | 31.22418 | 121.28565 | 18938 ft | 358 kts | 248° |
| 2026-05-07 08:41 | 31.21407 | 121.25893 | 19528 ft | 362 kts | 248° |
| 2026-05-07 08:41 | 31.20378 | 121.23180 | 20186 ft | 364 kts | 248° |
| 2026-05-07 08:41 | 31.19351 | 121.20476 | 20751 ft | 368 kts | 248° |
| 2026-05-07 08:42 | 31.18312 | 121.17740 | 21345 ft | 370 kts | 248° |
| 2026-05-07 08:42 | 31.17267 | 121.14983 | 21846 ft | 375 kts | 248° |
| 2026-05-07 08:42 | 31.16216 | 121.12212 | 22396 ft | 377 kts | 249° |
| 2026-05-07 08:42 | 31.15149 | 121.09400 | 22922 ft | 380 kts | 249° |
| 2026-05-07 08:43 | 31.14076 | 121.06587 | 23429 ft | 382 kts | 248° |
| 2026-05-07 08:43 | 31.12996 | 121.03760 | 23941 ft | 384 kts | 248° |
| 2026-05-07 08:43 | 31.11907 | 121.00907 | 24397 ft | 387 kts | 248° |
| 2026-05-07 08:43 | 31.10794 | 120.97993 | 24910 ft | 389 kts | 248° |
| 2026-05-07 08:44 | 31.09698 | 120.95126 | 25374 ft | 391 kts | 248° |
| 2026-05-07 08:44 | 31.08586 | 120.92212 | 25826 ft | 393 kts | 248° |
| 2026-05-07 08:44 | 31.07482 | 120.89316 | 26340 ft | 394 kts | 248° |
| 2026-05-07 08:44 | 31.06361 | 120.86382 | 26694 ft | 398 kts | 248° |
| 2026-05-07 08:45 | 31.05235 | 120.83438 | 27247 ft | 397 kts | 248° |
| 2026-05-07 08:45 | 31.04109 | 120.80497 | 27556 ft | 402 kts | 248° |
| 2026-05-07 08:45 | 31.02956 | 120.77490 | 27975 ft | 404 kts | 248° |
| 2026-05-07 08:45 | 31.01822 | 120.74538 | 28495 ft | 403 kts | 248° |
| 2026-05-07 08:46 | 31.00682 | 120.71575 | 29090 ft | 400 kts | 248° |
| 2026-05-07 08:46 | 30.99549 | 120.68637 | 29713 ft | 395 kts | 248° |
| 2026-05-07 08:46 | 30.98421 | 120.65714 | 29974 ft | 396 kts | 248° |
| 2026-05-07 08:46 | 30.97290 | 120.62788 | 30008 ft | 397 kts | 248° |
| 2026-05-07 08:47 | 30.96161 | 120.59857 | 30138 ft | 405 kts | 248° |
| 2026-05-07 08:47 | 30.94999 | 120.56840 | 30480 ft | 407 kts | 248° |
| 2026-05-07 08:47 | 30.93848 | 120.53855 | 31156 ft | 400 kts | 249° |
| 2026-05-07 08:47 | 30.92716 | 120.50929 | 31787 ft | 393 kts | 248° |
| 2026-05-07 08:48 | 30.91594 | 120.48047 | 31984 ft | 391 kts | 248° |
| 2026-05-07 08:48 | 30.90368 | 120.45264 | 32009 ft | 391 kts | 243° |
| 2026-05-07 08:48 | 30.86710 | 120.40498 | 32025 ft | 400 kts | 225° |
| 2026-05-07 08:49 | 30.82227 | 120.36681 | 32015 ft | 402 kts | 221° |
| 2026-05-07 08:49 | 30.77560 | 120.32954 | 32017 ft | 403 kts | 221° |
| 2026-05-07 08:50 | 30.72971 | 120.29232 | 32018 ft | 400 kts | 221° |
| 2026-05-07 08:50 | 30.68416 | 120.25510 | 32015 ft | 400 kts | 221° |
| 2026-05-07 08:51 | 30.63875 | 120.21789 | 32018 ft | 401 kts | 221° |
| 2026-05-07 08:51 | 30.59304 | 120.18045 | 32021 ft | 403 kts | 221° |
| 2026-05-07 08:52 | 30.54721 | 120.14313 | 32023 ft | 400 kts | 221° |
| 2026-05-07 08:52 | 30.50189 | 120.10615 | 32024 ft | 401 kts | 221° |
| 2026-05-07 08:53 | 30.45598 | 120.06864 | 32022 ft | 402 kts | 222° |
| 2026-05-07 08:53 | 30.40951 | 120.03260 | 32025 ft | 406 kts | 218° |
| 2026-05-07 08:54 | 30.35980 | 119.99972 | 32023 ft | 409 kts | 216° |
| 2026-05-07 08:54 | 30.31007 | 119.96773 | 32024 ft | 404 kts | 216° |
| 2026-05-07 08:55 | 30.26092 | 119.93540 | 32026 ft | 410 kts | 217° |
| 2026-05-07 08:55 | 30.21128 | 119.90264 | 32023 ft | 409 kts | 217° |
| 2026-05-07 08:56 | 30.16179 | 119.86996 | 32027 ft | 410 kts | 217° |
| 2026-05-07 08:56 | 30.11255 | 119.83718 | 32028 ft | 408 kts | 217° |
| 2026-05-07 08:57 | 30.06342 | 119.80453 | 32028 ft | 406 kts | 217° |
| 2026-05-07 08:57 | 30.01447 | 119.77204 | 32027 ft | 404 kts | 218° |
| 2026-05-07 08:58 | 29.96556 | 119.73919 | 32029 ft | 407 kts | 217° |
| 2026-05-07 08:58 | 29.91663 | 119.70625 | 32044 ft | 409 kts | 218° |
| 2026-05-07 08:59 | 29.86769 | 119.67332 | 32046 ft | 405 kts | 218° |
| 2026-05-07 08:59 | 29.81966 | 119.63923 | 32055 ft | 403 kts | 221° |
| 2026-05-07 09:00 | 29.77341 | 119.60262 | 32053 ft | 401 kts | 221° |
| 2026-05-07 09:00 | 29.72756 | 119.56589 | 32055 ft | 403 kts | 222° |
| 2026-05-07 09:01 | 29.68145 | 119.52903 | 32053 ft | 403 kts | 222° |
| 2026-05-07 09:01 | 29.63638 | 119.49129 | 32044 ft | 398 kts | 227° |
| 2026-05-07 09:02 | 29.59704 | 119.44727 | 32049 ft | 393 kts | 233° |
| 2026-05-07 09:02 | 29.56077 | 119.40046 | 32052 ft | 389 kts | 234° |
| 2026-05-07 09:03 | 29.52461 | 119.35426 | 32050 ft | 390 kts | 234° |
| 2026-05-07 09:03 | 29.48808 | 119.30791 | 32049 ft | 388 kts | 233° |
| 2026-05-07 09:04 | 29.45235 | 119.26211 | 32045 ft | 388 kts | 234° |
| 2026-05-07 09:04 | 29.41645 | 119.21536 | 32049 ft | 388 kts | 233° |
| 2026-05-07 09:05 | 29.38001 | 119.16932 | 32042 ft | 391 kts | 233° |
| 2026-05-07 09:05 | 29.34357 | 119.12373 | 32046 ft | 388 kts | 233° |
| 2026-05-07 09:06 | 29.30712 | 119.07775 | 32037 ft | 387 kts | 233° |
| 2026-05-07 09:06 | 29.27086 | 119.03191 | 32034 ft | 391 kts | 233° |
| 2026-05-07 09:07 | 29.23417 | 118.98563 | 32022 ft | 391 kts | 233° |
| 2026-05-07 09:07 | 29.19740 | 118.93960 | 32035 ft | 392 kts | 233° |
| 2026-05-07 09:08 | 29.16063 | 118.89376 | 32041 ft | 388 kts | 233° |
| 2026-05-07 09:08 | 29.12417 | 118.84817 | 32042 ft | 390 kts | 233° |
| 2026-05-07 09:09 | 29.08768 | 118.80229 | 32042 ft | 389 kts | 234° |
| 2026-05-07 09:09 | 29.05097 | 118.75633 | 32037 ft | 389 kts | 233° |
| 2026-05-07 09:10 | 29.01433 | 118.71040 | 32029 ft | 390 kts | 233° |
| 2026-05-07 09:10 | 28.97786 | 118.66484 | 32022 ft | 388 kts | 233° |
| 2026-05-07 09:11 | 28.94108 | 118.61907 | 32032 ft | 393 kts | 234° |
| 2026-05-07 09:11 | 28.90429 | 118.57303 | 32034 ft | 391 kts | 233° |
| 2026-05-07 09:12 | 28.86770 | 118.52750 | 32031 ft | 391 kts | 233° |
| 2026-05-07 09:12 | 28.83103 | 118.48211 | 32032 ft | 391 kts | 233° |
| 2026-05-07 09:13 | 28.79403 | 118.43623 | 32029 ft | 391 kts | 233° |
| 2026-05-07 09:13 | 28.75737 | 118.39059 | 32030 ft | 392 kts | 233° |
| 2026-05-07 09:14 | 28.72001 | 118.34391 | 32158 ft | 404 kts | 232° |
| 2026-05-07 09:14 | 28.70080 | 118.32006 | 32403 ft | 407 kts | 232° |
| 2026-05-07 09:14 | 28.68165 | 118.29636 | 32764 ft | 408 kts | 232° |
| 2026-05-07 09:15 | 28.66238 | 118.27264 | 33200 ft | 407 kts | 232° |
| 2026-05-07 09:15 | 28.64301 | 118.24904 | 33586 ft | 408 kts | 233° |
| 2026-05-07 09:15 | 28.62391 | 118.22565 | 34004 ft | 407 kts | 232° |
| 2026-05-07 09:15 | 28.60463 | 118.20187 | 34427 ft | 406 kts | 233° |
| 2026-05-07 09:16 | 28.58568 | 118.17834 | 34825 ft | 406 kts | 233° |
| 2026-05-07 09:16 | 28.56658 | 118.15469 | 35229 ft | 405 kts | 233° |
| 2026-05-07 09:16 | 28.54756 | 118.13112 | 35479 ft | 407 kts | 233° |
| 2026-05-07 09:16 | 28.52832 | 118.10732 | 35821 ft | 407 kts | 233° |
| 2026-05-07 09:17 | 28.48969 | 118.05974 | 36051 ft | 411 kts | 233° |
| 2026-05-07 09:17 | 28.45066 | 118.01182 | 36049 ft | 405 kts | 233° |
| 2026-05-07 09:18 | 28.41279 | 117.96570 | 36053 ft | 390 kts | 233° |
| 2026-05-07 09:18 | 28.37509 | 117.92050 | 36058 ft | 397 kts | 232° |
| 2026-05-07 09:19 | 28.35579 | 117.89774 | 36176 ft | 401 kts | 233° |
| 2026-05-07 09:19 | 28.33631 | 117.87485 | 36440 ft | 402 kts | 232° |
| 2026-05-07 09:19 | 28.31699 | 117.85225 | 36863 ft | 400 kts | 232° |
| 2026-05-07 09:19 | 28.29787 | 117.82986 | 37271 ft | 398 kts | 233° |
| 2026-05-07 09:20 | 28.27851 | 117.80709 | 37534 ft | 398 kts | 233° |
| 2026-05-07 09:20 | 28.25936 | 117.78451 | 37800 ft | 398 kts | 233° |
| 2026-05-07 09:20 | 28.24025 | 117.76198 | 38046 ft | 398 kts | 233° |
| 2026-05-07 09:20 | 28.22069 | 117.73894 | 38048 ft | 400 kts | 233° |
| 2026-05-07 09:21 | 28.18220 | 117.69377 | 38057 ft | 397 kts | 233° |
| 2026-05-07 09:21 | 28.14377 | 117.64861 | 38061 ft | 397 kts | 233° |
| 2026-05-07 09:22 | 28.10541 | 117.60341 | 38065 ft | 397 kts | 233° |
| 2026-05-07 09:22 | 28.06736 | 117.55881 | 38063 ft | 396 kts | 233° |
| 2026-05-07 09:23 | 28.02875 | 117.51370 | 38061 ft | 397 kts | 233° |
| 2026-05-07 09:23 | 27.99051 | 117.46903 | 38058 ft | 395 kts | 233° |
| 2026-05-07 09:24 | 27.95197 | 117.42400 | 38066 ft | 399 kts | 233° |
| 2026-05-07 09:24 | 27.91353 | 117.37891 | 38072 ft | 400 kts | 233° |
| 2026-05-07 09:25 | 27.87469 | 117.33369 | 38072 ft | 398 kts | 233° |
| 2026-05-07 09:25 | 27.83608 | 117.28884 | 38078 ft | 401 kts | 233° |
| 2026-05-07 09:26 | 27.79727 | 117.24357 | 38076 ft | 401 kts | 232° |
| 2026-05-07 09:26 | 27.75867 | 117.19852 | 38068 ft | 398 kts | 232° |
| 2026-05-07 09:27 | 27.71997 | 117.15376 | 38061 ft | 402 kts | 233° |
| 2026-05-07 09:28 | 27.66133 | 117.08599 | 38056 ft | 401 kts | 233° |
| 2026-05-07 09:28 | 27.62205 | 117.04060 | 38062 ft | 403 kts | 232° |
| 2026-05-07 09:29 | 27.58302 | 116.99542 | 38070 ft | 404 kts | 233° |
| 2026-05-07 09:29 | 27.54383 | 116.94995 | 38064 ft | 403 kts | 233° |
| 2026-05-07 09:30 | 27.50500 | 116.90489 | 38051 ft | 402 kts | 233° |
| 2026-05-07 09:30 | 27.46623 | 116.85963 | 38040 ft | 400 kts | 233° |
| 2026-05-07 09:31 | 27.42751 | 116.81419 | 38033 ft | 405 kts | 233° |
| 2026-05-07 09:31 | 27.38821 | 116.76811 | 38026 ft | 404 kts | 233° |
| 2026-05-07 09:32 | 27.34924 | 116.72270 | 38027 ft | 405 kts | 233° |
| 2026-05-07 09:32 | 27.31007 | 116.67709 | 38030 ft | 406 kts | 233° |
| 2026-05-07 09:33 | 27.27055 | 116.63113 | 38032 ft | 407 kts | 232° |
| 2026-05-07 09:33 | 27.23148 | 116.58566 | 38023 ft | 406 kts | 233° |
| 2026-05-07 09:34 | 27.19262 | 116.54012 | 38026 ft | 404 kts | 234° |
| 2026-05-07 09:34 | 27.15444 | 116.49388 | 38028 ft | 404 kts | 235° |
| 2026-05-07 09:35 | 27.11626 | 116.44719 | 38035 ft | 406 kts | 234° |
| 2026-05-07 09:35 | 27.07782 | 116.40065 | 38034 ft | 404 kts | 234° |
| 2026-05-07 09:36 | 27.03962 | 116.35461 | 38041 ft | 404 kts | 234° |
| 2026-05-07 09:36 | 27.00118 | 116.30815 | 38046 ft | 409 kts | 233° |
| 2026-05-07 09:37 | 26.96260 | 116.26150 | 38038 ft | 408 kts | 233° |
| 2026-05-07 09:37 | 26.92395 | 116.21512 | 38043 ft | 405 kts | 233° |
| 2026-05-07 09:38 | 26.88580 | 116.16893 | 38043 ft | 408 kts | 234° |
| 2026-05-07 09:38 | 26.84730 | 116.12203 | 38041 ft | 408 kts | 234° |
| 2026-05-07 09:39 | 26.80909 | 116.07547 | 38035 ft | 406 kts | 233° |
| 2026-05-07 09:39 | 26.77069 | 116.02872 | 38033 ft | 410 kts | 234° |
| 2026-05-07 09:40 | 26.73192 | 115.98158 | 38030 ft | 407 kts | 234° |
| 2026-05-07 09:40 | 26.69367 | 115.93514 | 38035 ft | 407 kts | 234° |
| 2026-05-07 09:41 | 26.65522 | 115.88848 | 38040 ft | 409 kts | 233° |
| 2026-05-07 09:41 | 26.61655 | 115.84167 | 38040 ft | 409 kts | 233° |
| 2026-05-07 09:42 | 26.57810 | 115.79517 | 38040 ft | 407 kts | 233° |
| 2026-05-07 09:42 | 26.53944 | 115.74847 | 38037 ft | 410 kts | 233° |
| 2026-05-07 09:43 | 26.50093 | 115.70212 | 38031 ft | 407 kts | 233° |
| 2026-05-07 09:43 | 26.46228 | 115.65562 | 38034 ft | 407 kts | 233° |
| 2026-05-07 09:44 | 26.42385 | 115.60944 | 38035 ft | 407 kts | 233° |
| 2026-05-07 09:44 | 26.38541 | 115.56331 | 38035 ft | 408 kts | 233° |
| 2026-05-07 09:45 | 26.34667 | 115.51659 | 38029 ft | 408 kts | 233° |
| 2026-05-07 09:45 | 26.30811 | 115.47032 | 38031 ft | 408 kts | 233° |
| 2026-05-07 09:46 | 26.26930 | 115.42387 | 38026 ft | 409 kts | 233° |
| 2026-05-07 09:46 | 26.23054 | 115.37745 | 38016 ft | 409 kts | 233° |
| 2026-05-07 09:47 | 26.19174 | 115.33105 | 38011 ft | 408 kts | 232° |
| 2026-05-07 09:47 | 26.15287 | 115.28451 | 38001 ft | 411 kts | 232° |
| 2026-05-07 09:48 | 26.11403 | 115.23808 | 37995 ft | 408 kts | 232° |
| 2026-05-07 09:48 | 26.07519 | 115.19190 | 37996 ft | 409 kts | 232° |
| 2026-05-07 09:49 | 26.03590 | 115.14523 | 37996 ft | 411 kts | 232° |
| 2026-05-07 09:49 | 25.99699 | 115.09907 | 37999 ft | 410 kts | 232° |
| 2026-05-07 09:50 | 25.95836 | 115.05331 | 38006 ft | 408 kts | 232° |
| 2026-05-07 09:50 | 25.91949 | 115.00718 | 38013 ft | 409 kts | 232° |
| 2026-05-07 09:51 | 25.88047 | 114.96083 | 38015 ft | 409 kts | 232° |
| 2026-05-07 09:51 | 25.84125 | 114.91493 | 38021 ft | 411 kts | 231° |
| 2026-05-07 09:52 | 25.79565 | 114.87614 | 38008 ft | 426 kts | 212° |
| 2026-05-07 09:52 | 25.73792 | 114.85564 | 38016 ft | 439 kts | 200° |
| 2026-05-07 09:53 | 25.67804 | 114.84106 | 38009 ft | 441 kts | 198° |
| 2026-05-07 09:53 | 25.61768 | 114.82700 | 38007 ft | 439 kts | 199° |
| 2026-05-07 09:54 | 25.55715 | 114.81240 | 38009 ft | 442 kts | 199° |
| 2026-05-07 09:54 | 25.49662 | 114.79752 | 38005 ft | 442 kts | 199° |
| 2026-05-07 09:55 | 25.43681 | 114.78271 | 38004 ft | 440 kts | 199° |
| 2026-05-07 09:55 | 25.37717 | 114.76633 | 38003 ft | 443 kts | 200° |
| 2026-05-07 09:56 | 25.31640 | 114.75140 | 38005 ft | 447 kts | 198° |
| 2026-05-07 09:56 | 25.25532 | 114.73722 | 38006 ft | 446 kts | 198° |
| 2026-05-07 09:57 | 25.19455 | 114.72282 | 38011 ft | 444 kts | 199° |
| 2026-05-07 09:57 | 25.13372 | 114.70805 | 38018 ft | 444 kts | 199° |
| 2026-05-07 09:58 | 25.07299 | 114.69317 | 38025 ft | 447 kts | 198° |
| 2026-05-07 09:58 | 25.01186 | 114.67820 | 38033 ft | 445 kts | 198° |
| 2026-05-07 09:59 | 24.95124 | 114.66328 | 38036 ft | 450 kts | 199° |
| 2026-05-07 09:59 | 24.89004 | 114.64820 | 38026 ft | 449 kts | 198° |
| 2026-05-07 10:00 | 24.82875 | 114.63320 | 38022 ft | 447 kts | 198° |
| 2026-05-07 10:00 | 24.76744 | 114.61818 | 38013 ft | 450 kts | 198° |
| 2026-05-07 10:01 | 24.70710 | 114.60047 | 38013 ft | 446 kts | 206° |
| 2026-05-07 10:01 | 24.65138 | 114.57230 | 38020 ft | 437 kts | 214° |
| 2026-05-07 10:02 | 24.59855 | 114.53913 | 38028 ft | 438 kts | 216° |
| 2026-05-07 10:02 | 24.54611 | 114.50527 | 38036 ft | 437 kts | 216° |
| 2026-05-07 10:03 | 24.49356 | 114.47160 | 38043 ft | 438 kts | 216° |
| 2026-05-07 10:03 | 24.44681 | 114.43022 | 38041 ft | 426 kts | 235° |
| 2026-05-07 10:04 | 24.41181 | 114.37824 | 38030 ft | 421 kts | 240° |
| 2026-05-07 10:04 | 24.37819 | 114.32561 | 38029 ft | 421 kts | 239° |
| 2026-05-07 10:05 | 24.34323 | 114.27365 | 38029 ft | 424 kts | 237° |
| 2026-05-07 10:05 | 24.30722 | 114.22231 | 38036 ft | 423 kts | 236° |
| 2026-05-07 10:06 | 24.27042 | 114.17189 | 38029 ft | 426 kts | 232° |
| 2026-05-07 10:06 | 24.24797 | 114.15070 | 38022 ft | 437 kts | 218° |
| 2026-05-07 10:06 | 24.22073 | 114.13412 | 37802 ft | 446 kts | 211° |
| 2026-05-07 10:06 | 24.19224 | 114.11993 | 37500 ft | 448 kts | 208° |
| 2026-05-07 10:07 | 24.16390 | 114.10691 | 37201 ft | 447 kts | 207° |
| 2026-05-07 10:07 | 24.13475 | 114.09381 | 36898 ft | 446 kts | 207° |
| 2026-05-07 10:07 | 24.10617 | 114.08088 | 36600 ft | 447 kts | 207° |
| 2026-05-07 10:07 | 24.07765 | 114.06764 | 36301 ft | 448 kts | 208° |
| 2026-05-07 10:08 | 24.04875 | 114.05392 | 36000 ft | 449 kts | 208° |
| 2026-05-07 10:08 | 24.02019 | 114.04015 | 35704 ft | 451 kts | 208° |
| 2026-05-07 10:08 | 23.99171 | 114.02631 | 35407 ft | 451 kts | 209° |
| 2026-05-07 10:08 | 23.96285 | 114.01218 | 35109 ft | 451 kts | 209° |
| 2026-05-07 10:09 | 23.93427 | 113.99815 | 34814 ft | 452 kts | 208° |
| 2026-05-07 10:09 | 23.90545 | 113.98396 | 34516 ft | 453 kts | 209° |
| 2026-05-07 10:09 | 23.87694 | 113.96995 | 34220 ft | 453 kts | 208° |
| 2026-05-07 10:09 | 23.84810 | 113.95576 | 33925 ft | 450 kts | 208° |
| 2026-05-07 10:10 | 23.81960 | 113.94175 | 33630 ft | 448 kts | 208° |
| 2026-05-07 10:10 | 23.79104 | 113.92769 | 33335 ft | 447 kts | 208° |
| 2026-05-07 10:10 | 23.76275 | 113.91375 | 33043 ft | 445 kts | 208° |
| 2026-05-07 10:10 | 23.73475 | 113.89998 | 32755 ft | 443 kts | 209° |
| 2026-05-07 10:11 | 23.70663 | 113.88617 | 32480 ft | 442 kts | 208° |
| 2026-05-07 10:11 | 23.67846 | 113.87235 | 32202 ft | 437 kts | 208° |
| 2026-05-07 10:11 | 23.65074 | 113.85877 | 31599 ft | 437 kts | 208° |
| 2026-05-07 10:11 | 23.62330 | 113.84530 | 31136 ft | 433 kts | 208° |
| 2026-05-07 10:12 | 23.59569 | 113.83177 | 30639 ft | 431 kts | 208° |
| 2026-05-07 10:12 | 23.56875 | 113.81857 | 30164 ft | 427 kts | 208° |
| 2026-05-07 10:12 | 23.54143 | 113.80518 | 29652 ft | 425 kts | 208° |
| 2026-05-07 10:12 | 23.51454 | 113.79199 | 29228 ft | 421 kts | 208° |
| 2026-05-07 10:13 | 23.48787 | 113.77893 | 28711 ft | 419 kts | 208° |
| 2026-05-07 10:13 | 23.46141 | 113.76598 | 28192 ft | 418 kts | 208° |
| 2026-05-07 10:13 | 23.43490 | 113.75298 | 27386 ft | 424 kts | 208° |
| 2026-05-07 10:13 | 23.40785 | 113.73971 | 26613 ft | 428 kts | 208° |
| 2026-05-07 10:14 | 23.38056 | 113.72634 | 26131 ft | 424 kts | 208° |
| 2026-05-07 10:14 | 23.35395 | 113.71335 | 25661 ft | 420 kts | 208° |
| 2026-05-07 10:14 | 23.32720 | 113.70030 | 25179 ft | 416 kts | 208° |
| 2026-05-07 10:14 | 23.30091 | 113.68748 | 24688 ft | 413 kts | 208° |
| 2026-05-07 10:15 | 23.27486 | 113.67477 | 24215 ft | 409 kts | 208° |
| 2026-05-07 10:15 | 23.24917 | 113.66222 | 23742 ft | 405 kts | 208° |
| 2026-05-07 10:15 | 23.22331 | 113.64960 | 23282 ft | 401 kts | 208° |
| 2026-05-07 10:15 | 23.19798 | 113.63725 | 22765 ft | 399 kts | 208° |
| 2026-05-07 10:16 | 23.17279 | 113.62498 | 22291 ft | 395 kts | 208° |
| 2026-05-07 10:16 | 23.14761 | 113.61273 | 21807 ft | 392 kts | 208° |
| 2026-05-07 10:16 | 23.12281 | 113.60066 | 21312 ft | 389 kts | 208° |
| 2026-05-07 10:16 | 23.09820 | 113.58868 | 20852 ft | 385 kts | 208° |
| 2026-05-07 10:17 | 23.07412 | 113.57695 | 20386 ft | 382 kts | 208° |
| 2026-05-07 10:17 | 23.04976 | 113.56508 | 19823 ft | 378 kts | 207° |
| 2026-05-07 10:17 | 23.02617 | 113.55360 | 19037 ft | 373 kts | 208° |
| 2026-05-07 10:17 | 23.00260 | 113.54213 | 18260 ft | 368 kts | 207° |
| 2026-05-07 10:18 | 22.97942 | 113.53084 | 17428 ft | 364 kts | 207° |
| 2026-05-07 10:18 | 22.95646 | 113.51964 | 16660 ft | 358 kts | 207° |
| 2026-05-07 10:18 | 22.93370 | 113.50852 | 15821 ft | 355 kts | 207° |
| 2026-05-07 10:18 | 22.91147 | 113.49773 | 15031 ft | 351 kts | 206° |
| 2026-05-07 10:19 | 22.88890 | 113.48795 | 14211 ft | 348 kts | 201° |
| 2026-05-07 10:19 | 22.86551 | 113.48144 | 13407 ft | 347 kts | 192° |
| 2026-05-07 10:19 | 22.84164 | 113.47839 | 12618 ft | 344 kts | 187° |
| 2026-05-07 10:19 | 22.81789 | 113.47689 | 11825 ft | 341 kts | 185° |
| 2026-05-07 10:20 | 22.79453 | 113.47581 | 11227 ft | 330 kts | 185° |
| 2026-05-07 10:20 | 22.77201 | 113.47469 | 10836 ft | 315 kts | 185° |
| 2026-05-07 10:20 | 22.75041 | 113.47342 | 10471 ft | 302 kts | 186° |
| 2026-05-07 10:20 | 22.72997 | 113.47203 | 10165 ft | 287 kts | 187° |
| 2026-05-07 10:21 | 22.71058 | 113.47059 | 9947 ft | 269 kts | 187° |
| 2026-05-07 10:21 | 22.69239 | 113.46919 | 9815 ft | 255 kts | 186° |
| 2026-05-07 10:21 | 22.67507 | 113.46789 | 9726 ft | 242 kts | 186° |
| 2026-05-07 10:21 | 22.65834 | 113.46671 | 9525 ft | 236 kts | 186° |
| 2026-05-07 10:22 | 22.64185 | 113.46654 | 9211 ft | 237 kts | 175° |
| 2026-05-07 10:22 | 22.62637 | 113.47210 | 8885 ft | 240 kts | 147° |
| 2026-05-07 10:22 | 22.61499 | 113.48542 | 8573 ft | 241 kts | 121° |
| 2026-05-07 10:22 | 22.60854 | 113.50191 | 8279 ft | 240 kts | 104° |
| 2026-05-07 10:23 | 22.60655 | 113.51990 | 8001 ft | 237 kts | 91° |
| 2026-05-07 10:23 | 22.60822 | 113.53754 | 7657 ft | 238 kts | 71° |
| 2026-05-07 10:23 | 22.61607 | 113.55324 | 7360 ft | 235 kts | 49° |
| 2026-05-07 10:23 | 22.62871 | 113.56401 | 7050 ft | 232 kts | 22° |
| 2026-05-07 10:24 | 22.64427 | 113.56760 | 6756 ft | 228 kts | 1° |
| 2026-05-07 10:24 | 22.66023 | 113.56783 | 6515 ft | 227 kts | 359° |
| 2026-05-07 10:24 | 22.67605 | 113.56808 | 6276 ft | 227 kts | 0° |
| 2026-05-07 10:24 | 22.69189 | 113.56856 | 6037 ft | 225 kts | 1° |
| 2026-05-07 10:25 | 22.70764 | 113.56912 | 5792 ft | 225 kts | 1° |
| 2026-05-07 10:25 | 22.72352 | 113.56967 | 5548 ft | 225 kts | 1° |
| 2026-05-07 10:25 | 22.73912 | 113.57016 | 5313 ft | 225 kts | 1° |
| 2026-05-07 10:25 | 22.75495 | 113.57063 | 5074 ft | 225 kts | 1° |
| 2026-05-07 10:26 | 22.77041 | 113.57109 | 4850 ft | 221 kts | 1° |
| 2026-05-07 10:26 | 22.78569 | 113.57157 | 4606 ft | 214 kts | 1° |
| 2026-05-07 10:26 | 22.80027 | 113.57199 | 4365 ft | 209 kts | 1° |
| 2026-05-07 10:26 | 22.81469 | 113.57260 | 4123 ft | 204 kts | 6° |
| 2026-05-07 10:27 | 22.82812 | 113.57684 | 3909 ft | 198 kts | 33° |
| 2026-05-07 10:27 | 22.83775 | 113.58701 | 3874 ft | 189 kts | 58° |
| 2026-05-07 10:27 | 22.84383 | 113.59966 | 3867 ft | 194 kts | 78° |
| 2026-05-07 10:27 | 22.84308 | 113.61411 | 3821 ft | 195 kts | 114° |
| 2026-05-07 10:28 | 22.83677 | 113.62691 | 3806 ft | 194 kts | 121° |
| 2026-05-07 10:28 | 22.82997 | 113.63975 | 3719 ft | 195 kts | 120° |
| 2026-05-07 10:28 | 22.82333 | 113.65249 | 3518 ft | 193 kts | 121° |
| 2026-05-07 10:28 | 22.81670 | 113.66499 | 3382 ft | 184 kts | 122° |
| 2026-05-07 10:29 | 22.81025 | 113.67677 | 3379 ft | 180 kts | 123° |
| 2026-05-07 10:29 | 22.80355 | 113.68853 | 3384 ft | 188 kts | 123° |
| 2026-05-07 10:29 | 22.79628 | 113.70070 | 3314 ft | 193 kts | 124° |
| 2026-05-07 10:30 | 22.78109 | 113.72394 | 2820 ft | 183 kts | 129° |
| 2026-05-07 10:30 | 22.77215 | 113.73360 | 2594 ft | 185 kts | 143° |
| 2026-05-07 10:30 | 22.76144 | 113.74152 | 2363 ft | 181 kts | 149° |
| 2026-05-07 10:30 | 22.75096 | 113.74828 | 2085 ft | 170 kts | 152° |
| 2026-05-07 10:31 | 22.74084 | 113.75434 | 1885 ft | 160 kts | 153° |
| 2026-05-07 10:31 | 22.73112 | 113.75994 | 1736 ft | 157 kts | 154° |
| 2026-05-07 10:31 | 22.72118 | 113.76554 | 1482 ft | 159 kts | 154° |
| 2026-05-07 10:31 | 22.71172 | 113.77082 | 1259 ft | 150 kts | 154° |
| 2026-05-07 10:32 | 22.70239 | 113.77598 | 1087 ft | 150 kts | 155° |
| 2026-05-07 10:32 | 22.69317 | 113.78107 | 893 ft | 149 kts | 155° |
| 2026-05-07 10:32 | 22.68377 | 113.78623 | 692 ft | 149 kts | 155° |
| 2026-05-07 10:32 | 22.67458 | 113.79133 | 509 ft | 150 kts | 155° |
| 2026-05-07 10:33 | 22.66516 | 113.79645 | 309 ft | 149 kts | 155° |
| 2026-05-07 10:33 | 22.65587 | 113.80153 | 126 ft | 149 kts | 156° |
| 2026-05-07 10:33 | 22.64682 | 113.80652 | 32 ft | 136 kts | 155° |
| 2026-05-07 10:33 | 22.63766 | 113.81151 | 188 ft | 157 kts | 155° |
| 2026-05-07 10:34 | 22.62771 | 113.81689 | 655 ft | 167 kts | 156° |
| 2026-05-07 10:34 | 22.61679 | 113.82184 | 1027 ft | 171 kts | 156° |
| 2026-05-07 10:34 | 22.60723 | 113.82939 | 1406 ft | 174 kts | 136° |
| 2026-05-07 10:34 | 22.59860 | 113.83874 | 1864 ft | 175 kts | 137° |
| 2026-05-07 10:35 | 22.59050 | 113.84841 | 2283 ft | 179 kts | 120° |
| 2026-05-07 10:35 | 22.58790 | 113.86201 | 2267 ft | 192 kts | 83° |
| 2026-05-07 10:35 | 22.59388 | 113.87470 | 2211 ft | 191 kts | 43° |
| 2026-05-07 10:35 | 22.60564 | 113.88064 | 2194 ft | 187 kts | 13° |
| 2026-05-07 10:36 | 22.61850 | 113.88298 | 2197 ft | 191 kts | 10° |
| 2026-05-07 10:36 | 22.63152 | 113.88533 | 2197 ft | 183 kts | 11° |
| 2026-05-07 10:36 | 22.64395 | 113.88765 | 2176 ft | 178 kts | 10° |
| 2026-05-07 10:36 | 22.65605 | 113.88992 | 2178 ft | 175 kts | 11° |
| 2026-05-07 10:37 | 22.66809 | 113.89223 | 2156 ft | 176 kts | 11° |
| 2026-05-07 10:37 | 22.68040 | 113.89372 | 2155 ft | 178 kts | 359° |
| 2026-05-07 10:37 | 22.69260 | 113.89196 | 2180 ft | 178 kts | 345° |
| 2026-05-07 10:37 | 22.70449 | 113.88799 | 2237 ft | 176 kts | 339° |
| 2026-05-07 10:38 | 22.71605 | 113.88314 | 2235 ft | 178 kts | 335° |
| 2026-05-07 10:38 | 22.72738 | 113.87755 | 2266 ft | 177 kts | 334° |
| 2026-05-07 10:38 | 22.73843 | 113.87194 | 2292 ft | 176 kts | 334° |
| 2026-05-07 10:38 | 22.74957 | 113.86628 | 2336 ft | 175 kts | 334° |
| 2026-05-07 10:39 | 22.76077 | 113.86079 | 2336 ft | 178 kts | 335° |
| 2026-05-07 10:39 | 22.77225 | 113.85526 | 2357 ft | 179 kts | 334° |
| 2026-05-07 10:39 | 22.78316 | 113.84885 | 2386 ft | 178 kts | 319° |
| 2026-05-07 10:39 | 22.79054 | 113.83884 | 2510 ft | 165 kts | 292° |
| 2026-05-07 10:40 | 22.79319 | 113.82683 | 2418 ft | 169 kts | 268° |
| 2026-05-07 10:40 | 22.79107 | 113.81466 | 2261 ft | 160 kts | 245° |
| 2026-05-07 10:40 | 22.78639 | 113.80411 | 2120 ft | 154 kts | 240° |
| 2026-05-07 10:40 | 22.78130 | 113.79393 | 1931 ft | 154 kts | 239° |
| 2026-05-07 10:41 | 22.77641 | 113.78365 | 1770 ft | 153 kts | 241° |
| 2026-05-07 10:41 | 22.77155 | 113.77336 | 1595 ft | 153 kts | 234° |
| 2026-05-07 10:41 | 22.76436 | 113.76507 | 1409 ft | 150 kts | 212° |
| 2026-05-07 10:41 | 22.75494 | 113.76088 | 1333 ft | 144 kts | 189° |
| 2026-05-07 10:42 | 22.74493 | 113.76015 | 1309 ft | 143 kts | 179° |
| 2026-05-07 10:42 | 22.73495 | 113.76130 | 1308 ft | 145 kts | 171° |
| 2026-05-07 10:42 | 22.72514 | 113.76403 | 1318 ft | 146 kts | 160° |
| 2026-05-07 10:42 | 22.71571 | 113.76876 | 1210 ft | 151 kts | 155° |
| 2026-05-07 10:43 | 22.70650 | 113.77401 | 1062 ft | 149 kts | 155° |
| 2026-05-07 10:43 | 22.69727 | 113.77902 | 928 ft | 147 kts | 155° |
| 2026-05-07 10:43 | 22.68807 | 113.78404 | 761 ft | 148 kts | 155° |
| 2026-05-07 10:43 | 22.67887 | 113.78902 | 595 ft | 149 kts | 155° |
| 2026-05-07 10:44 | 22.66957 | 113.79411 | 408 ft | 151 kts | 155° |
| 2026-05-07 10:44 | 22.66010 | 113.79929 | 224 ft | 151 kts | 155° |
| 2026-05-07 10:44 | 22.65061 | 113.80446 | 36 ft | 151 kts | 155° |
| 2026-05-07 10:44 | 22.64219 | 113.80903 | 21 ft | 110 kts | 154° |
| 2026-05-07 10:45 | 22.63740 | 113.81166 | 21 ft | 48 kts | 153° |
| 2026-05-07 10:45 | 22.63504 | 113.81253 | 21 ft | 33 kts | 174° |
| 2026-05-07 10:45 | 22.63379 | 113.81249 | 21 ft | 10 kts | 186° |
| 2026-05-07 10:45 | 22.63325 | 113.81223 | 21 ft | 7 kts | 240° |
| 2026-05-07 10:46 | 22.63334 | 113.81174 | 21 ft | 7 kts | 317° |
| 2026-05-07 10:46 | 22.63376 | 113.81147 | 21 ft | 6 kts | 333° |
| 2026-05-07 10:46 | 22.63418 | 113.81124 | 21 ft | 6 kts | 333° |
| 2026-05-07 10:46 | 22.63460 | 113.81101 | 21 ft | 6 kts | 333° |
| 2026-05-07 10:47 | 22.63503 | 113.81077 | 21 ft | 7 kts | 333° |
| 2026-05-07 10:47 | 22.63561 | 113.81046 | 21 ft | 10 kts | 333° |
| 2026-05-07 10:47 | 22.63626 | 113.81010 | 21 ft | 8 kts | 333° |
| 2026-05-07 10:47 | 22.63652 | 113.80961 | 21 ft | 9 kts | 261° |
| 2026-05-07 10:48 | 22.63631 | 113.80899 | 21 ft | 8 kts | 248° |
| 2026-05-07 10:48 | 22.63609 | 113.80846 | 21 ft | 7 kts | 244° |
| 2026-05-07 10:48 | 22.63578 | 113.80804 | 21 ft | 7 kts | 208° |
| 2026-05-07 10:48 | 22.63544 | 113.80795 | 21 ft | 3 kts | 186° |
| 2026-05-07 10:49 | 22.63521 | 113.80792 | 21 ft | 3 kts | 186° |
| 2026-05-07 10:49 | 22.63508 | 113.80791 | 21 ft | 0 kts | 186° |
| 2026-05-07 10:49 | 22.63499 | 113.80790 | 21 ft | 1 kts | 186° |
| 2026-05-07 10:49 | 22.63497 | 113.80789 | 21 ft | 0 kts | 186° |